sensor_id;sensor_type;location;lat;lon;timestamp;P1;durP1;ratioP1;P2;durP2;ratioP2
6937;SDS011;40040;42.706;23.372;2023-02-15T00:01:19;38.63;;;18.60;;
6937;SDS011;40040;42.706;23.372;2023-02-15T00:03:47;45.80;;;20.57;;
6937;SDS011;40040;42.706;23.372;2023-02-15T00:06:14;43.37;;;18.47;;
6937;SDS011;40040;42.706;23.372;2023-02-15T00:08:40;44.70;;;20.40;;
6937;SDS011;40040;42.706;23.372;2023-02-15T00:11:09;42.53;;;18.60;;
6937;SDS011;40040;42.706;23.372;2023-02-15T00:13:37;42.27;;;19.30;;
6937;SDS011;40040;42.706;23.372;2023-02-15T00:16:07;42.43;;;20.10;;
6937;SDS011;40040;42.706;23.372;2023-02-15T00:18:35;46.23;;;20.37;;
6937;SDS011;40040;42.706;23.372;2023-02-15T00:21:03;41.53;;;19.07;;
6937;SDS011;40040;42.706;23.372;2023-02-15T00:23:31;43.83;;;19.80;;
6937;SDS011;40040;42.706;23.372;2023-02-15T00:26:05;44.83;;;20.37;;
6937;SDS011;40040;42.706;23.372;2023-02-15T00:28:33;42.37;;;18.40;;
6937;SDS011;40040;42.706;23.372;2023-02-15T00:31:04;43.03;;;18.97;;
6937;SDS011;40040;42.706;23.372;2023-02-15T00:33:32;49.13;;;21.23;;
6937;SDS011;40040;42.706;23.372;2023-02-15T00:35:59;40.50;;;18.57;;
6937;SDS011;40040;42.706;23.372;2023-02-15T00:38:27;40.20;;;18.33;;
6937;SDS011;40040;42.706;23.372;2023-02-15T00:40:55;43.87;;;19.70;;
6937;SDS011;40040;42.706;23.372;2023-02-15T00:43:22;39.13;;;18.17;;
6937;SDS011;40040;42.706;23.372;2023-02-15T00:45:51;40.93;;;19.40;;
6937;SDS011;40040;42.706;23.372;2023-02-15T00:48:18;40.40;;;18.23;;
6937;SDS011;40040;42.706;23.372;2023-02-15T00:50:46;41.73;;;19.10;;
6937;SDS011;40040;42.706;23.372;2023-02-15T00:53:14;39.37;;;19.07;;
6937;SDS011;40040;42.706;23.372;2023-02-15T00:55:41;42.07;;;18.23;;
6937;SDS011;40040;42.706;23.372;2023-02-15T00:58:08;38.07;;;18.93;;
6937;SDS011;40040;42.706;23.372;2023-02-15T01:00:37;38.77;;;18.70;;
6937;SDS011;40040;42.706;23.372;2023-02-15T01:03:06;41.33;;;18.73;;
6937;SDS011;40040;42.706;23.372;2023-02-15T01:05:34;41.63;;;18.57;;
6937;SDS011;40040;42.706;23.372;2023-02-15T01:08:01;42.03;;;19.30;;
6937;SDS011;40040;42.706;23.372;2023-02-15T01:10:28;44.13;;;19.70;;
6937;SDS011;40040;42.706;23.372;2023-02-15T01:12:55;40.13;;;18.57;;
6937;SDS011;40040;42.706;23.372;2023-02-15T01:15:23;41.13;;;18.50;;
6937;SDS011;40040;42.706;23.372;2023-02-15T01:17:50;35.93;;;18.17;;
6937;SDS011;40040;42.706;23.372;2023-02-15T01:20:20;41.17;;;17.73;;
6937;SDS011;40040;42.706;23.372;2023-02-15T01:22:47;41.33;;;19.27;;
6937;SDS011;40040;42.706;23.372;2023-02-15T01:25:15;38.73;;;17.57;;
6937;SDS011;40040;42.706;23.372;2023-02-15T01:27:42;36.80;;;17.53;;
6937;SDS011;40040;42.706;23.372;2023-02-15T01:30:09;35.17;;;17.13;;
6937;SDS011;40040;42.706;23.372;2023-02-15T01:32:37;38.33;;;18.43;;
6937;SDS011;40040;42.706;23.372;2023-02-15T01:35:04;36.80;;;17.73;;
6937;SDS011;40040;42.706;23.372;2023-02-15T01:37:33;35.47;;;16.97;;
6937;SDS011;40040;42.706;23.372;2023-02-15T01:40:00;35.00;;;16.63;;
6937;SDS011;40040;42.706;23.372;2023-02-15T01:42:27;36.70;;;17.23;;
6937;SDS011;40040;42.706;23.372;2023-02-15T01:44:55;35.30;;;18.03;;
6937;SDS011;40040;42.706;23.372;2023-02-15T01:47:32;38.23;;;18.60;;
6937;SDS011;40040;42.706;23.372;2023-02-15T01:50:06;36.07;;;16.83;;
6937;SDS011;40040;42.706;23.372;2023-02-15T01:52:40;36.20;;;17.50;;
6937;SDS011;40040;42.706;23.372;2023-02-15T01:55:11;37.00;;;16.77;;
6937;SDS011;40040;42.706;23.372;2023-02-15T01:57:39;36.47;;;17.00;;
6937;SDS011;40040;42.706;23.372;2023-02-15T02:00:08;32.93;;;16.40;;
6937;SDS011;40040;42.706;23.372;2023-02-15T02:02:36;37.07;;;17.20;;
6937;SDS011;40040;42.706;23.372;2023-02-15T02:05:03;33.67;;;16.97;;
6937;SDS011;40040;42.706;23.372;2023-02-15T02:07:34;36.30;;;17.00;;
6937;SDS011;40040;42.706;23.372;2023-02-15T02:10:07;31.27;;;15.67;;
6937;SDS011;40040;42.706;23.372;2023-02-15T02:12:37;29.03;;;14.13;;
6937;SDS011;40040;42.706;23.372;2023-02-15T02:15:08;33.73;;;16.63;;
6937;SDS011;40040;42.706;23.372;2023-02-15T02:17:37;36.07;;;16.43;;
6937;SDS011;40040;42.706;23.372;2023-02-15T02:20:27;31.90;;;16.17;;
6937;SDS011;40040;42.706;23.372;2023-02-15T02:26:08;34.43;;;15.87;;
6937;SDS011;40040;42.706;23.372;2023-02-15T02:29:13;35.23;;;16.53;;
6937;SDS011;40040;42.706;23.372;2023-02-15T02:35:24;35.57;;;16.43;;
6937;SDS011;40040;42.706;23.372;2023-02-15T02:37:59;38.50;;;15.97;;
6937;SDS011;40040;42.706;23.372;2023-02-15T02:40:36;32.70;;;16.47;;
6937;SDS011;40040;42.706;23.372;2023-02-15T02:43:14;33.37;;;16.07;;
6937;SDS011;40040;42.706;23.372;2023-02-15T02:45:48;33.23;;;15.43;;
6937;SDS011;40040;42.706;23.372;2023-02-15T02:48:20;35.83;;;15.80;;
6937;SDS011;40040;42.706;23.372;2023-02-15T02:50:52;33.67;;;15.87;;
6937;SDS011;40040;42.706;23.372;2023-02-15T02:53:18;37.43;;;17.27;;
6937;SDS011;40040;42.706;23.372;2023-02-15T02:55:46;33.63;;;16.37;;
6937;SDS011;40040;42.706;23.372;2023-02-15T02:58:15;33.43;;;16.60;;
6937;SDS011;40040;42.706;23.372;2023-02-15T03:00:49;34.83;;;16.77;;
6937;SDS011;40040;42.706;23.372;2023-02-15T03:03:20;38.90;;;17.07;;
6937;SDS011;40040;42.706;23.372;2023-02-15T03:05:53;34.37;;;16.23;;
6937;SDS011;40040;42.706;23.372;2023-02-15T03:08:23;34.00;;;16.43;;
6937;SDS011;40040;42.706;23.372;2023-02-15T03:10:54;35.67;;;16.23;;
6937;SDS011;40040;42.706;23.372;2023-02-15T03:13:23;36.77;;;16.43;;
6937;SDS011;40040;42.706;23.372;2023-02-15T03:15:50;33.10;;;16.13;;
6937;SDS011;40040;42.706;23.372;2023-02-15T03:18:33;34.67;;;15.73;;
6937;SDS011;40040;42.706;23.372;2023-02-15T03:21:06;31.43;;;16.17;;
6937;SDS011;40040;42.706;23.372;2023-02-15T03:23:47;33.47;;;15.40;;
6937;SDS011;40040;42.706;23.372;2023-02-15T03:26:18;34.97;;;15.80;;
6937;SDS011;40040;42.706;23.372;2023-02-15T03:28:49;32.63;;;16.10;;
6937;SDS011;40040;42.706;23.372;2023-02-15T03:31:19;32.03;;;16.13;;
6937;SDS011;40040;42.706;23.372;2023-02-15T03:33:51;35.67;;;16.30;;
6937;SDS011;40040;42.706;23.372;2023-02-15T03:36:24;30.97;;;16.33;;
6937;SDS011;40040;42.706;23.372;2023-02-15T03:38:59;31.50;;;15.50;;
6937;SDS011;40040;42.706;23.372;2023-02-15T03:41:32;34.97;;;15.47;;
6937;SDS011;40040;42.706;23.372;2023-02-15T03:44:04;36.30;;;16.30;;
6937;SDS011;40040;42.706;23.372;2023-02-15T03:46:40;33.87;;;15.90;;
6937;SDS011;40040;42.706;23.372;2023-02-15T03:49:12;33.33;;;15.80;;
6937;SDS011;40040;42.706;23.372;2023-02-15T03:51:45;31.17;;;15.10;;
6937;SDS011;40040;42.706;23.372;2023-02-15T03:54:18;33.20;;;16.30;;
6937;SDS011;40040;42.706;23.372;2023-02-15T03:57:08;34.50;;;16.43;;
6937;SDS011;40040;42.706;23.372;2023-02-15T03:59:54;31.17;;;14.77;;
6937;SDS011;40040;42.706;23.372;2023-02-15T04:02:40;31.57;;;15.50;;
6937;SDS011;40040;42.706;23.372;2023-02-15T04:05:17;30.50;;;15.23;;
6937;SDS011;40040;42.706;23.372;2023-02-15T04:07:45;33.43;;;15.57;;
6937;SDS011;40040;42.706;23.372;2023-02-15T04:10:12;29.80;;;15.37;;
6937;SDS011;40040;42.706;23.372;2023-02-15T04:12:57;33.40;;;16.00;;
6937;SDS011;40040;42.706;23.372;2023-02-15T04:15:24;33.33;;;15.23;;
6937;SDS011;40040;42.706;23.372;2023-02-15T04:18:07;32.80;;;15.50;;
6937;SDS011;40040;42.706;23.372;2023-02-15T04:20:34;30.43;;;14.70;;
6937;SDS011;40040;42.706;23.372;2023-02-15T04:23:19;34.70;;;15.70;;
6937;SDS011;40040;42.706;23.372;2023-02-15T04:26:04;29.97;;;14.67;;
6937;SDS011;40040;42.706;23.372;2023-02-15T04:28:31;32.97;;;15.40;;
6937;SDS011;40040;42.706;23.372;2023-02-15T04:30:58;31.33;;;14.60;;
6937;SDS011;40040;42.706;23.372;2023-02-15T04:33:24;31.37;;;15.93;;
6937;SDS011;40040;42.706;23.372;2023-02-15T04:35:51;31.37;;;15.33;;
6937;SDS011;40040;42.706;23.372;2023-02-15T04:38:19;33.20;;;15.77;;
6937;SDS011;40040;42.706;23.372;2023-02-15T04:40:49;36.20;;;17.30;;
6937;SDS011;40040;42.706;23.372;2023-02-15T04:43:16;34.00;;;16.47;;
6937;SDS011;40040;42.706;23.372;2023-02-15T04:45:47;35.07;;;16.50;;
6937;SDS011;40040;42.706;23.372;2023-02-15T04:48:15;34.63;;;16.73;;
6937;SDS011;40040;42.706;23.372;2023-02-15T04:50:42;31.03;;;15.57;;
6937;SDS011;40040;42.706;23.372;2023-02-15T04:53:09;36.10;;;16.53;;
6937;SDS011;40040;42.706;23.372;2023-02-15T04:55:38;36.13;;;16.90;;
6937;SDS011;40040;42.706;23.372;2023-02-15T04:58:04;35.60;;;16.97;;
6937;SDS011;40040;42.706;23.372;2023-02-15T05:00:31;39.13;;;17.17;;
6937;SDS011;40040;42.706;23.372;2023-02-15T05:02:58;37.17;;;17.23;;
6937;SDS011;40040;42.706;23.372;2023-02-15T05:05:25;33.53;;;16.57;;
6937;SDS011;40040;42.706;23.372;2023-02-15T05:07:52;35.90;;;16.70;;
6937;SDS011;40040;42.706;23.372;2023-02-15T05:10:19;34.07;;;16.13;;
6937;SDS011;40040;42.706;23.372;2023-02-15T05:12:47;34.83;;;16.87;;
6937;SDS011;40040;42.706;23.372;2023-02-15T05:15:14;34.87;;;16.60;;
6937;SDS011;40040;42.706;23.372;2023-02-15T05:17:41;34.80;;;16.83;;
6937;SDS011;40040;42.706;23.372;2023-02-15T05:20:08;34.10;;;17.73;;
6937;SDS011;40040;42.706;23.372;2023-02-15T05:22:35;34.17;;;17.10;;
6937;SDS011;40040;42.706;23.372;2023-02-15T05:25:02;36.07;;;17.93;;
6937;SDS011;40040;42.706;23.372;2023-02-15T05:27:48;47.60;;;20.20;;
6937;SDS011;40040;42.706;23.372;2023-02-15T05:30:33;50.23;;;23.50;;
6937;SDS011;40040;42.706;23.372;2023-02-15T05:32:59;74.30;;;28.70;;
6937;SDS011;40040;42.706;23.372;2023-02-15T05:35:26;67.80;;;26.53;;
6937;SDS011;40040;42.706;23.372;2023-02-15T05:37:53;59.90;;;24.60;;
6937;SDS011;40040;42.706;23.372;2023-02-15T05:40:20;55.13;;;22.83;;
6937;SDS011;40040;42.706;23.372;2023-02-15T05:42:46;36.57;;;17.20;;
6937;SDS011;40040;42.706;23.372;2023-02-15T05:45:15;34.67;;;16.80;;
6937;SDS011;40040;42.706;23.372;2023-02-15T05:47:42;30.40;;;15.80;;
6937;SDS011;40040;42.706;23.372;2023-02-15T05:50:09;33.40;;;16.43;;
6937;SDS011;40040;42.706;23.372;2023-02-15T05:52:36;37.07;;;18.20;;
6937;SDS011;40040;42.706;23.372;2023-02-15T05:55:03;35.10;;;19.20;;
6937;SDS011;40040;42.706;23.372;2023-02-15T05:57:33;34.70;;;16.97;;
6937;SDS011;40040;42.706;23.372;2023-02-15T06:00:02;36.20;;;18.03;;
6937;SDS011;40040;42.706;23.372;2023-02-15T06:02:32;33.73;;;16.93;;
6937;SDS011;40040;42.706;23.372;2023-02-15T06:05:00;40.33;;;19.10;;
6937;SDS011;40040;42.706;23.372;2023-02-15T06:07:26;35.93;;;18.10;;
6937;SDS011;40040;42.706;23.372;2023-02-15T06:09:53;37.63;;;17.50;;
6937;SDS011;40040;42.706;23.372;2023-02-15T06:12:20;36.20;;;17.77;;
6937;SDS011;40040;42.706;23.372;2023-02-15T06:14:47;34.47;;;17.50;;
6937;SDS011;40040;42.706;23.372;2023-02-15T06:17:15;35.77;;;16.23;;
6937;SDS011;40040;42.706;23.372;2023-02-15T06:19:42;35.20;;;16.77;;
6937;SDS011;40040;42.706;23.372;2023-02-15T06:22:09;39.37;;;17.07;;
6937;SDS011;40040;42.706;23.372;2023-02-15T06:24:39;34.73;;;16.70;;
6937;SDS011;40040;42.706;23.372;2023-02-15T06:27:07;37.50;;;16.73;;
6937;SDS011;40040;42.706;23.372;2023-02-15T06:29:34;32.93;;;15.93;;
6937;SDS011;40040;42.706;23.372;2023-02-15T06:32:01;33.17;;;16.57;;
6937;SDS011;40040;42.706;23.372;2023-02-15T06:34:30;33.43;;;16.20;;
6937;SDS011;40040;42.706;23.372;2023-02-15T06:36:57;32.87;;;16.47;;
6937;SDS011;40040;42.706;23.372;2023-02-15T06:39:24;29.90;;;15.40;;
6937;SDS011;40040;42.706;23.372;2023-02-15T06:41:51;33.70;;;16.73;;
6937;SDS011;40040;42.706;23.372;2023-02-15T06:44:18;33.53;;;16.67;;
6937;SDS011;40040;42.706;23.372;2023-02-15T06:46:44;33.63;;;16.70;;
6937;SDS011;40040;42.706;23.372;2023-02-15T06:49:11;38.00;;;18.40;;
6937;SDS011;40040;42.706;23.372;2023-02-15T06:51:39;40.83;;;19.77;;
6937;SDS011;40040;42.706;23.372;2023-02-15T06:54:06;35.90;;;18.97;;
6937;SDS011;40040;42.706;23.372;2023-02-15T06:56:33;40.10;;;19.27;;
6937;SDS011;40040;42.706;23.372;2023-02-15T06:59:00;36.43;;;17.70;;
6937;SDS011;40040;42.706;23.372;2023-02-15T07:01:27;35.93;;;17.83;;
6937;SDS011;40040;42.706;23.372;2023-02-15T07:03:54;39.53;;;19.80;;
6937;SDS011;40040;42.706;23.372;2023-02-15T07:06:21;38.60;;;19.13;;
6937;SDS011;40040;42.706;23.372;2023-02-15T07:08:49;39.70;;;19.00;;
6937;SDS011;40040;42.706;23.372;2023-02-15T07:11:16;38.47;;;19.97;;
6937;SDS011;40040;42.706;23.372;2023-02-15T07:14:00;41.70;;;20.17;;
6937;SDS011;40040;42.706;23.372;2023-02-15T07:16:27;38.93;;;19.70;;
6937;SDS011;40040;42.706;23.372;2023-02-15T07:18:54;39.37;;;18.10;;
6937;SDS011;40040;42.706;23.372;2023-02-15T07:21:21;41.00;;;18.47;;
6937;SDS011;40040;42.706;23.372;2023-02-15T07:23:47;37.60;;;17.67;;
6937;SDS011;40040;42.706;23.372;2023-02-15T07:26:16;34.27;;;16.00;;
6937;SDS011;40040;42.706;23.372;2023-02-15T07:28:42;38.77;;;18.07;;
6937;SDS011;40040;42.706;23.372;2023-02-15T07:31:12;38.77;;;17.87;;
6937;SDS011;40040;42.706;23.372;2023-02-15T07:33:39;30.37;;;15.87;;
6937;SDS011;40040;42.706;23.372;2023-02-15T07:36:08;34.23;;;15.70;;
6937;SDS011;40040;42.706;23.372;2023-02-15T07:38:38;31.70;;;15.67;;
6937;SDS011;40040;42.706;23.372;2023-02-15T07:41:09;29.37;;;14.73;;
6937;SDS011;40040;42.706;23.372;2023-02-15T07:43:37;28.97;;;15.10;;
6937;SDS011;40040;42.706;23.372;2023-02-15T07:46:06;30.30;;;14.20;;
6937;SDS011;40040;42.706;23.372;2023-02-15T07:48:34;27.00;;;13.87;;
6937;SDS011;40040;42.706;23.372;2023-02-15T07:51:02;26.90;;;14.20;;
6937;SDS011;40040;42.706;23.372;2023-02-15T07:53:31;29.73;;;15.33;;
6937;SDS011;40040;42.706;23.372;2023-02-15T07:55:59;29.17;;;15.60;;
6937;SDS011;40040;42.706;23.372;2023-02-15T07:58:27;31.47;;;15.60;;
6937;SDS011;40040;42.706;23.372;2023-02-15T08:01:08;30.10;;;14.77;;
6937;SDS011;40040;42.706;23.372;2023-02-15T08:03:35;33.07;;;16.40;;
6937;SDS011;40040;42.706;23.372;2023-02-15T08:06:02;39.67;;;18.93;;
6937;SDS011;40040;42.706;23.372;2023-02-15T08:08:29;33.83;;;15.50;;
6937;SDS011;40040;42.706;23.372;2023-02-15T08:10:59;29.67;;;14.53;;
6937;SDS011;40040;42.706;23.372;2023-02-15T08:13:47;30.93;;;15.90;;
6937;SDS011;40040;42.706;23.372;2023-02-15T08:16:28;31.10;;;15.87;;
6937;SDS011;40040;42.706;23.372;2023-02-15T08:18:56;28.13;;;15.63;;
6937;SDS011;40040;42.706;23.372;2023-02-15T08:21:24;30.03;;;15.73;;
6937;SDS011;40040;42.706;23.372;2023-02-15T08:23:53;27.07;;;13.23;;
6937;SDS011;40040;42.706;23.372;2023-02-15T08:26:20;27.57;;;14.80;;
6937;SDS011;40040;42.706;23.372;2023-02-15T08:28:48;31.77;;;15.53;;
6937;SDS011;40040;42.706;23.372;2023-02-15T08:31:15;34.90;;;16.30;;
6937;SDS011;40040;42.706;23.372;2023-02-15T08:33:43;31.87;;;15.53;;
6937;SDS011;40040;42.706;23.372;2023-02-15T08:36:13;31.47;;;15.63;;
6937;SDS011;40040;42.706;23.372;2023-02-15T08:38:42;29.73;;;15.53;;
6937;SDS011;40040;42.706;23.372;2023-02-15T08:41:10;31.50;;;15.73;;
6937;SDS011;40040;42.706;23.372;2023-02-15T08:43:38;32.40;;;15.83;;
6937;SDS011;40040;42.706;23.372;2023-02-15T08:46:07;39.10;;;18.77;;
6937;SDS011;40040;42.706;23.372;2023-02-15T08:48:35;36.37;;;18.77;;
6937;SDS011;40040;42.706;23.372;2023-02-15T08:51:05;33.87;;;16.03;;
6937;SDS011;40040;42.706;23.372;2023-02-15T08:53:36;30.87;;;14.77;;
6937;SDS011;40040;42.706;23.372;2023-02-15T08:56:03;28.70;;;15.03;;
6937;SDS011;40040;42.706;23.372;2023-02-15T08:58:30;30.67;;;16.03;;
6937;SDS011;40040;42.706;23.372;2023-02-15T09:00:59;30.50;;;15.33;;
6937;SDS011;40040;42.706;23.372;2023-02-15T09:03:28;28.53;;;14.17;;
6937;SDS011;40040;42.706;23.372;2023-02-15T09:05:58;34.57;;;16.60;;
6937;SDS011;40040;42.706;23.372;2023-02-15T09:08:26;26.40;;;14.83;;
6937;SDS011;40040;42.706;23.372;2023-02-15T09:10:54;29.20;;;15.00;;
6937;SDS011;40040;42.706;23.372;2023-02-15T09:13:21;21.67;;;12.67;;
6937;SDS011;40040;42.706;23.372;2023-02-15T09:15:47;24.73;;;13.03;;
6937;SDS011;40040;42.706;23.372;2023-02-15T09:18:14;26.67;;;14.30;;
6937;SDS011;40040;42.706;23.372;2023-02-15T09:20:44;25.87;;;14.67;;
6937;SDS011;40040;42.706;23.372;2023-02-15T09:23:11;28.83;;;14.50;;
6937;SDS011;40040;42.706;23.372;2023-02-15T09:25:39;22.43;;;12.33;;
6937;SDS011;40040;42.706;23.372;2023-02-15T09:28:07;24.23;;;13.50;;
6937;SDS011;40040;42.706;23.372;2023-02-15T09:30:34;28.53;;;13.50;;
6937;SDS011;40040;42.706;23.372;2023-02-15T09:33:01;25.83;;;13.40;;
6937;SDS011;40040;42.706;23.372;2023-02-15T09:35:30;27.00;;;14.10;;
6937;SDS011;40040;42.706;23.372;2023-02-15T09:37:58;24.87;;;13.90;;
6937;SDS011;40040;42.706;23.372;2023-02-15T09:40:25;29.80;;;15.40;;
6937;SDS011;40040;42.706;23.372;2023-02-15T09:42:59;25.23;;;13.63;;
6937;SDS011;40040;42.706;23.372;2023-02-15T09:45:49;22.57;;;12.77;;
6937;SDS011;40040;42.706;23.372;2023-02-15T09:48:38;30.50;;;15.20;;
6937;SDS011;40040;42.706;23.372;2023-02-15T09:51:15;25.33;;;12.43;;
6937;SDS011;40040;42.706;23.372;2023-02-15T09:54:06;26.03;;;15.07;;
6937;SDS011;40040;42.706;23.372;2023-02-15T09:56:42;22.30;;;12.83;;
6937;SDS011;40040;42.706;23.372;2023-02-15T09:59:16;27.33;;;15.03;;
6937;SDS011;40040;42.706;23.372;2023-02-15T10:01:55;26.43;;;14.00;;
6937;SDS011;40040;42.706;23.372;2023-02-15T10:04:42;39.97;;;19.77;;
6937;SDS011;40040;42.706;23.372;2023-02-15T10:07:21;25.90;;;13.60;;
6937;SDS011;40040;42.706;23.372;2023-02-15T10:10:05;23.17;;;14.03;;
6937;SDS011;40040;42.706;23.372;2023-02-15T10:12:54;25.83;;;14.30;;
6937;SDS011;40040;42.706;23.372;2023-02-15T10:15:33;21.77;;;12.37;;
6937;SDS011;40040;42.706;23.372;2023-02-15T10:18:13;25.90;;;13.80;;
6937;SDS011;40040;42.706;23.372;2023-02-15T10:20:52;28.40;;;14.70;;
6937;SDS011;40040;42.706;23.372;2023-02-15T10:23:36;27.53;;;14.40;;
6937;SDS011;40040;42.706;23.372;2023-02-15T10:26:21;25.00;;;13.80;;
6937;SDS011;40040;42.706;23.372;2023-02-15T10:28:49;24.40;;;13.00;;
6937;SDS011;40040;42.706;23.372;2023-02-15T10:31:22;20.37;;;12.13;;
6937;SDS011;40040;42.706;23.372;2023-02-15T10:34:02;25.33;;;12.33;;
6937;SDS011;40040;42.706;23.372;2023-02-15T10:36:42;20.37;;;11.77;;
6937;SDS011;40040;42.706;23.372;2023-02-15T10:39:26;24.83;;;14.30;;
6937;SDS011;40040;42.706;23.372;2023-02-15T10:42:38;21.42;;;13.45;;
6937;SDS011;40040;42.706;23.372;2023-02-15T10:45:35;23.20;;;12.30;;
6937;SDS011;40040;42.706;23.372;2023-02-15T10:48:47;23.63;;;13.77;;
6937;SDS011;40040;42.706;23.372;2023-02-15T10:51:36;23.13;;;12.43;;
6937;SDS011;40040;42.706;23.372;2023-02-15T10:54:14;23.52;;;13.52;;
6937;SDS011;40040;42.706;23.372;2023-02-15T10:56:50;26.88;;;14.70;;
6937;SDS011;40040;42.706;23.372;2023-02-15T10:59:35;26.73;;;15.82;;
6937;SDS011;40040;42.706;23.372;2023-02-15T11:02:13;26.27;;;14.40;;
6937;SDS011;40040;42.706;23.372;2023-02-15T11:04:51;23.13;;;14.32;;
6937;SDS011;40040;42.706;23.372;2023-02-15T11:07:25;23.52;;;14.23;;
6937;SDS011;40040;42.706;23.372;2023-02-15T11:10:01;27.83;;;15.65;;
6937;SDS011;40040;42.706;23.372;2023-02-15T11:12:33;24.48;;;15.15;;
6937;SDS011;40040;42.706;23.372;2023-02-15T11:15:02;25.70;;;15.00;;
6937;SDS011;40040;42.706;23.372;2023-02-15T11:17:38;25.83;;;15.80;;
6937;SDS011;40040;42.706;23.372;2023-02-15T11:20:15;25.95;;;15.02;;
6937;SDS011;40040;42.706;23.372;2023-02-15T11:22:49;28.20;;;15.35;;
6937;SDS011;40040;42.706;23.372;2023-02-15T11:25:21;28.95;;;14.95;;
6937;SDS011;40040;42.706;23.372;2023-02-15T11:27:50;27.30;;;14.13;;
6937;SDS011;40040;42.706;23.372;2023-02-15T11:30:21;26.88;;;15.70;;
6937;SDS011;40040;42.706;23.372;2023-02-15T11:32:50;24.90;;;14.52;;
6937;SDS011;40040;42.706;23.372;2023-02-15T11:35:20;27.25;;;15.90;;
6937;SDS011;40040;42.706;23.372;2023-02-15T11:37:58;23.67;;;14.45;;
6937;SDS011;40040;42.706;23.372;2023-02-15T11:40:33;27.65;;;16.35;;
6937;SDS011;40040;42.706;23.372;2023-02-15T11:43:03;25.00;;;15.05;;
6937;SDS011;40040;42.706;23.372;2023-02-15T11:45:34;27.23;;;15.75;;
6937;SDS011;40040;42.706;23.372;2023-02-15T11:48:02;22.35;;;13.48;;
6937;SDS011;40040;42.706;23.372;2023-02-15T11:50:40;29.02;;;15.80;;
6937;SDS011;40040;42.706;23.372;2023-02-15T11:53:10;28.95;;;16.00;;
6937;SDS011;40040;42.706;23.372;2023-02-15T11:55:39;22.40;;;13.00;;
6937;SDS011;40040;42.706;23.372;2023-02-15T11:58:11;21.83;;;13.13;;
6937;SDS011;40040;42.706;23.372;2023-02-15T12:00:50;22.00;;;13.52;;
6937;SDS011;40040;42.706;23.372;2023-02-15T12:03:22;27.27;;;15.52;;
6937;SDS011;40040;42.706;23.372;2023-02-15T12:05:58;26.25;;;14.23;;
6937;SDS011;40040;42.706;23.372;2023-02-15T12:08:30;23.50;;;13.18;;
6937;SDS011;40040;42.706;23.372;2023-02-15T12:11:05;30.67;;;16.90;;
6937;SDS011;40040;42.706;23.372;2023-02-15T12:13:37;26.75;;;15.25;;
6937;SDS011;40040;42.706;23.372;2023-02-15T12:16:22;25.67;;;14.55;;
6937;SDS011;40040;42.706;23.372;2023-02-15T12:18:49;25.90;;;15.48;;
6937;SDS011;40040;42.706;23.372;2023-02-15T12:21:23;24.95;;;15.63;;
6937;SDS011;40040;42.706;23.372;2023-02-15T12:23:53;25.98;;;15.65;;
6937;SDS011;40040;42.706;23.372;2023-02-15T12:26:27;29.58;;;17.00;;
6937;SDS011;40040;42.706;23.372;2023-02-15T12:28:57;24.75;;;15.05;;
6937;SDS011;40040;42.706;23.372;2023-02-15T12:31:30;23.10;;;13.65;;
6937;SDS011;40040;42.706;23.372;2023-02-15T12:34:00;24.92;;;14.85;;
6937;SDS011;40040;42.706;23.372;2023-02-15T12:36:48;26.48;;;16.23;;
6937;SDS011;40040;42.706;23.372;2023-02-15T12:39:20;25.27;;;14.85;;
6937;SDS011;40040;42.706;23.372;2023-02-15T12:41:58;24.45;;;14.95;;
6937;SDS011;40040;42.706;23.372;2023-02-15T12:44:29;26.88;;;15.93;;
6937;SDS011;40040;42.706;23.372;2023-02-15T12:47:00;24.17;;;14.18;;
6937;SDS011;40040;42.706;23.372;2023-02-15T12:49:29;23.77;;;14.65;;
6937;SDS011;40040;42.706;23.372;2023-02-15T12:51:57;25.75;;;15.55;;
6937;SDS011;40040;42.706;23.372;2023-02-15T12:54:30;28.75;;;16.17;;
6937;SDS011;40040;42.706;23.372;2023-02-15T12:57:24;25.73;;;15.07;;
6937;SDS011;40040;42.706;23.372;2023-02-15T12:59:55;27.83;;;15.25;;
6937;SDS011;40040;42.706;23.372;2023-02-15T13:02:29;28.80;;;15.80;;
6937;SDS011;40040;42.706;23.372;2023-02-15T13:05:04;26.08;;;15.60;;
6937;SDS011;40040;42.706;23.372;2023-02-15T13:07:44;23.85;;;13.00;;
6937;SDS011;40040;42.706;23.372;2023-02-15T13:10:21;24.02;;;14.32;;
6937;SDS011;40040;42.706;23.372;2023-02-15T13:12:51;25.98;;;15.15;;
6937;SDS011;40040;42.706;23.372;2023-02-15T13:15:23;24.05;;;15.65;;
6937;SDS011;40040;42.706;23.372;2023-02-15T13:17:56;26.63;;;15.15;;
6937;SDS011;40040;42.706;23.372;2023-02-15T13:20:24;29.17;;;18.27;;
6937;SDS011;40040;42.706;23.372;2023-02-15T13:22:53;28.42;;;16.15;;
6937;SDS011;40040;42.706;23.372;2023-02-15T13:25:25;23.77;;;14.45;;
6937;SDS011;40040;42.706;23.372;2023-02-15T13:28:00;25.58;;;14.40;;
6937;SDS011;40040;42.706;23.372;2023-02-15T13:30:31;25.92;;;14.45;;
6937;SDS011;40040;42.706;23.372;2023-02-15T13:33:04;25.95;;;14.75;;
6937;SDS011;40040;42.706;23.372;2023-02-15T13:35:36;25.77;;;14.85;;
6937;SDS011;40040;42.706;23.372;2023-02-15T13:38:22;22.75;;;13.93;;
6937;SDS011;40040;42.706;23.372;2023-02-15T13:41:09;22.30;;;13.82;;
6937;SDS011;40040;42.706;23.372;2023-02-15T13:43:43;26.38;;;14.60;;
6937;SDS011;40040;42.706;23.372;2023-02-15T13:46:21;29.08;;;15.43;;
6937;SDS011;40040;42.706;23.372;2023-02-15T13:49:07;27.15;;;14.95;;
6937;SDS011;40040;42.706;23.372;2023-02-15T13:52:02;26.08;;;14.45;;
6937;SDS011;40040;42.706;23.372;2023-02-15T14:00:49;30.27;;;16.92;;
6937;SDS011;40040;42.706;23.372;2023-02-15T14:03:49;26.85;;;14.38;;
6937;SDS011;40040;42.706;23.372;2023-02-15T14:06:42;28.77;;;16.48;;
6937;SDS011;40040;42.706;23.372;2023-02-15T14:09:20;28.63;;;15.60;;
6937;SDS011;40040;42.706;23.372;2023-02-15T14:11:57;23.95;;;14.50;;
6937;SDS011;40040;42.706;23.372;2023-02-15T14:14:39;25.30;;;14.63;;
6937;SDS011;40040;42.706;23.372;2023-02-15T14:17:19;28.40;;;14.77;;
6937;SDS011;40040;42.706;23.372;2023-02-15T14:19:54;24.87;;;13.73;;
6937;SDS011;40040;42.706;23.372;2023-02-15T14:22:30;26.77;;;14.95;;
6937;SDS011;40040;42.706;23.372;2023-02-15T14:25:14;25.05;;;13.85;;
6937;SDS011;40040;42.706;23.372;2023-02-15T14:27:51;26.13;;;15.73;;
6937;SDS011;40040;42.706;23.372;2023-02-15T14:30:26;26.97;;;15.40;;
6937;SDS011;40040;42.706;23.372;2023-02-15T14:32:59;30.10;;;16.97;;
6937;SDS011;40040;42.706;23.372;2023-02-15T14:35:30;26.77;;;15.37;;
6937;SDS011;40040;42.706;23.372;2023-02-15T14:38:00;24.90;;;14.50;;
6937;SDS011;40040;42.706;23.372;2023-02-15T14:40:38;30.60;;;15.33;;
6937;SDS011;40040;42.706;23.372;2023-02-15T14:43:34;33.70;;;17.43;;
6937;SDS011;40040;42.706;23.372;2023-02-15T14:46:14;32.23;;;15.87;;
6937;SDS011;40040;42.706;23.372;2023-02-15T14:48:48;30.73;;;15.30;;
6937;SDS011;40040;42.706;23.372;2023-02-15T15:03:16;30.83;;;16.83;;
6937;SDS011;40040;42.706;23.372;2023-02-15T15:05:48;28.73;;;16.10;;
6937;SDS011;40040;42.706;23.372;2023-02-15T15:08:26;31.93;;;16.57;;
6937;SDS011;40040;42.706;23.372;2023-02-15T15:11:13;27.13;;;14.27;;
6937;SDS011;40040;42.706;23.372;2023-02-15T15:14:10;27.10;;;15.13;;
6937;SDS011;40040;42.706;23.372;2023-02-15T15:17:01;27.10;;;15.03;;